Time;durP1;ratioP1;P1;durP2;ratioP2;P2;SDS_P1;SDS_P2;PMS_P1;PMS_P2;Temp;Humidity;BMP_temperature;BMP_pressure;BME280_temperature;BME280_humidity;BME280_pressure;Samples;Min_cycle;Max_cycle;Signal;HPM_P1;HPM_P2
2021/10/29 00:00:09;;;;;;;25.88;13.60;;;;;;;9.90;100.00;100873.19;2600642;36;20087;-74
2021/10/29 00:02:37;;;;;;;23.92;12.45;;;;;;;9.90;100.00;100872.34;2603637;36;20092;-74
2021/10/29 00:05:06;;;;;;;26.50;12.90;;;;;;;9.85;100.00;100872.75;2605513;36;20164;-73
2021/10/29 00:07:37;;;;;;;28.70;12.40;;;;;;;9.85;100.00;100874.56;2603246;36;20431;-72
2021/10/29 00:10:06;;;;;;;23.70;13.55;;;;;;;9.77;100.00;100880.59;2601564;36;20042;-73
2021/10/29 00:12:35;;;;;;;28.58;14.90;;;;;;;9.87;100.00;100867.25;2604612;36;20049;-73
2021/10/29 00:15:03;;;;;;;27.45;14.00;;;;;;;9.80;100.00;100867.78;2605506;36;20061;-75
2021/10/29 00:17:31;;;;;;;28.70;13.93;;;;;;;9.81;100.00;100874.81;2605843;36;21425;-73
2021/10/29 00:20:00;;;;;;;27.27;14.43;;;;;;;9.84;100.00;100864.81;2605898;36;20142;-73
2021/10/29 00:22:28;;;;;;;27.65;15.00;;;;;;;9.76;100.00;100869.00;2624922;36;20030;-72
2021/10/29 00:24:59;;;;;;;30.00;13.50;;;;;;;9.78;100.00;100864.34;2604376;36;21171;-72
2021/10/29 00:27:28;;;;;;;29.90;14.80;;;;;;;9.80;100.00;100867.78;2605825;36;20069;-73
2021/10/29 00:29:57;;;;;;;31.47;14.63;;;;;;;9.77;100.00;100854.56;2598835;36;20443;-72
2021/10/29 00:32:27;;;;;;;32.33;14.65;;;;;;;9.75;100.00;100856.53;2603822;36;20656;-74
2021/10/29 00:34:55;;;;;;;26.25;13.82;;;;;;;9.78;100.00;100867.03;2605298;54;20031;-73
2021/10/29 00:37:24;;;;;;;23.60;12.77;;;;;;;9.69;100.00;100851.69;2600742;36;20058;-74
2021/10/29 00:39:53;;;;;;;20.77;12.13;;;;;;;9.69;100.00;100872.31;2606837;36;20066;-73
2021/10/29 00:42:24;;;;;;;19.90;11.95;;;;;;;9.65;100.00;100869.06;2605584;31;20819;-72
2021/10/29 00:44:52;;;;;;;20.67;12.23;;;;;;;9.62;100.00;100858.56;2604441;36;20030;-72
2021/10/29 00:47:21;;;;;;;20.25;13.02;;;;;;;9.62;100.00;100863.94;2600311;36;20587;-73
2021/10/29 00:49:49;;;;;;;19.52;12.73;;;;;;;9.51;100.00;100858.63;2602498;31;20030;-74
2021/10/29 00:52:18;;;;;;;26.90;14.63;;;;;;;9.52;100.00;100869.22;2603927;36;20141;-73
2021/10/29 00:54:47;;;;;;;21.52;13.18;;;;;;;9.52;100.00;100853.09;2606619;36;20133;-73
2021/10/29 00:57:15;;;;;;;21.77;12.57;;;;;;;9.53;100.00;100856.66;2602130;36;20129;-74
2021/10/29 00:59:46;;;;;;;22.10;13.53;;;;;;;9.39;100.00;100856.00;2605415;36;20648;-73
2021/10/29 01:04:52;;;;;;;20.38;12.48;;;;;;;9.38;100.00;100848.91;2605628;36;20073;-75
2021/10/29 01:07:20;;;;;;;19.23;12.25;;;;;;;9.35;100.00;100854.53;2606193;31;20066;-74
2021/10/29 01:09:49;;;;;;;20.80;13.23;;;;;;;9.37;100.00;100852.56;2604539;36;20129;-73
2021/10/29 01:12:17;;;;;;;19.73;12.70;;;;;;;9.32;100.00;100841.38;2604575;36;20122;-75
2021/10/29 01:14:55;;;;;;;19.63;12.35;;;;;;;9.35;100.00;100838.44;2604531;31;20594;-74
2021/10/29 01:17:23;;;;;;;18.20;12.13;;;;;;;9.40;100.00;100838.88;2602210;36;20035;-73
2021/10/29 01:19:53;;;;;;;19.80;11.93;;;;;;;9.32;100.00;100844.06;2606072;36;20150;-74
2021/10/29 01:22:25;;;;;;;18.38;11.45;;;;;;;9.35;100.00;100841.13;2603539;36;20395;-73
2021/10/29 01:24:55;;;;;;;18.73;12.07;;;;;;;9.41;100.00;100837.91;2601266;36;20118;-73
2021/10/29 01:27:24;;;;;;;17.17;11.52;;;;;;;9.36;100.00;100833.91;2599719;36;20031;-74
2021/10/29 01:29:54;;;;;;;20.77;11.13;;;;;;;9.44;100.00;100834.97;2605358;36;20051;-73
2021/10/29 01:32:23;;;;;;;22.15;10.93;;;;;;;9.42;100.00;100830.69;2603660;36;20085;-73
2021/10/29 01:34:52;;;;;;;17.67;11.57;;;;;;;9.47;100.00;100832.00;2603370;36;20125;-75
2021/10/29 01:37:29;;;;;;;17.67;11.05;;;;;;;9.51;100.00;100829.94;2605219;36;20069;-73
2021/10/29 01:39:57;;;;;;;20.65;12.68;;;;;;;9.46;100.00;100824.91;2604074;36;20447;-74
2021/10/29 01:42:26;;;;;;;25.08;12.90;;;;;;;9.45;100.00;100823.25;2601592;31;20149;-73
2021/10/29 01:44:57;;;;;;;22.90;13.80;;;;;;;9.43;100.00;100819.81;2603935;36;20147;-74
2021/10/29 01:47:25;;;;;;;21.38;12.35;;;;;;;9.52;100.00;100817.34;2595852;36;20121;-74
2021/10/29 01:49:53;;;;;;;21.55;13.20;;;;;;;9.52;100.00;100820.88;2595553;36;20038;-74
2021/10/29 01:52:22;;;;;;;21.83;12.63;;;;;;;9.50;100.00;100814.78;2599148;36;20065;-73
2021/10/29 01:54:54;;;;;;;29.02;13.50;;;;;;;9.51;100.00;100816.50;2601411;36;20076;-73
2021/10/29 01:57:23;;;;;;;30.48;14.27;;;;;;;9.56;100.00;100808.88;2599434;36;20041;-72
2021/10/29 01:59:51;;;;;;;30.47;14.07;;;;;;;9.61;100.00;100813.84;2603212;36;20066;-73
2021/10/29 02:02:19;;;;;;;33.10;15.05;;;;;;;9.68;100.00;100800.75;2606014;36;20080;-73
2021/10/29 02:04:47;;;;;;;37.42;14.93;;;;;;;9.64;100.00;100802.84;2602390;36;20092;-73
2021/10/29 02:07:16;;;;;;;29.67;14.48;;;;;;;9.58;100.00;100796.16;2604483;31;20487;-73
2021/10/29 02:09:44;;;;;;;31.65;14.35;;;;;;;9.61;100.00;100797.75;2602904;36;20143;-73
2021/10/29 02:12:15;;;;;;;21.67;12.80;;;;;;;9.60;100.00;100801.44;2603624;31;20038;-74
2021/10/29 02:14:43;;;;;;;22.73;12.85;;;;;;;9.55;100.00;100790.22;2603840;36;20061;-74
2021/10/29 02:17:12;;;;;;;19.10;12.02;;;;;;;9.61;100.00;100787.00;2606361;36;20507;-73
2021/10/29 02:19:40;;;;;;;22.63;12.18;;;;;;;9.70;100.00;100788.03;2606624;36;20059;-74
2021/10/29 02:22:09;;;;;;;23.27;11.48;;;;;;;9.72;100.00;100781.56;2599443;36;20145;-73
2021/10/29 02:24:37;;;;;;;24.67;12.80;;;;;;;9.68;100.00;100779.25;2601203;36;20372;-73
2021/10/29 02:37:29;;;;;;;29.95;12.40;;;;;;;9.69;100.00;100771.06;2603701;36;20042;-74
2021/10/29 02:39:58;;;;;;;25.77;13.80;;;;;;;9.73;100.00;100768.94;2600597;36;20303;-73
2021/10/29 02:42:26;;;;;;;25.13;12.60;;;;;;;9.77;100.00;100768.56;2598327;36;21107;-72
2021/10/29 02:44:54;;;;;;;25.40;12.65;;;;;;;9.71;100.00;100766.41;2596873;36;20038;-74
2021/10/29 02:47:23;;;;;;;29.52;13.55;;;;;;;9.77;100.00;100767.72;2599585;36;20041;-72
2021/10/29 02:49:51;;;;;;;23.42;12.65;;;;;;;9.73;100.00;100769.81;2598836;36;20030;-73
2021/10/29 02:52:22;;;;;;;25.23;12.17;;;;;;;9.82;100.00;100760.13;2604689;36;20082;-74
2021/10/29 02:54:53;;;;;;;19.98;12.45;;;;;;;9.77;100.00;100767.72;2605991;36;20107;-72
2021/10/29 02:57:21;;;;;;;19.30;10.55;;;;;;;9.75;100.00;100769.69;2604948;31;20034;-74
2021/10/29 02:59:51;;;;;;;16.52;10.32;;;;;;;9.87;100.00;100757.03;2603327;36;20030;-72
2021/10/29 03:02:20;;;;;;;15.45;10.00;;;;;;;9.93;100.00;100760.00;2603723;36;20031;-72
2021/10/29 03:04:48;;;;;;;20.07;10.80;;;;;;;9.86;100.00;100747.25;2604910;36;20074;-73
2021/10/29 03:07:16;;;;;;;17.70;10.48;;;;;;;9.80;100.00;100759.38;2601691;36;20154;-73
2021/10/29 03:09:45;;;;;;;22.38;11.82;;;;;;;9.82;100.00;100755.56;2603191;36;20041;-73
2021/10/29 03:12:16;;;;;;;19.13;11.43;;;;;;;9.87;100.00;100752.47;2604395;31;20038;-71
2021/10/29 03:14:44;;;;;;;18.52;11.52;;;;;;;9.75;100.00;100761.63;2605304;36;20065;-71
2021/10/29 03:17:12;;;;;;;16.90;9.23;;;;;;;9.77;100.00;100756.97;2607254;36;20650;-72
2021/10/29 03:19:41;;;;;;;19.27;10.63;;;;;;;9.93;100.00;100754.63;2604729;36;20241;-72
2021/10/29 03:22:10;;;;;;;22.13;10.33;;;;;;;9.89;100.00;100755.88;2602803;31;20197;-73
2021/10/29 03:24:40;;;;;;;16.17;9.48;;;;;;;9.88;100.00;100742.56;2605166;36;22397;-72
2021/10/29 03:27:09;;;;;;;13.55;8.98;;;;;;;9.86;100.00;100749.94;2604441;36;20061;-72
2021/10/29 03:29:43;;;;;;;12.70;9.15;;;;;;;9.79;100.00;100750.47;2601818;36;20030;-72
2021/10/29 03:32:11;;;;;;;14.73;9.63;;;;;;;9.70;100.00;100747.72;2605548;31;20604;-72
2021/10/29 03:34:40;;;;;;;11.60;8.67;;;;;;;9.80;100.00;100737.88;2595542;36;20038;-72
2021/10/29 03:37:18;;;;;;;13.82;9.50;;;;;;;9.73;100.00;100734.88;2596119;36;20630;-75
2021/10/29 03:39:52;;;;;;;12.73;8.70;;;;;;;9.65;100.00;100740.06;2599347;36;20073;-72
2021/10/29 03:42:25;;;;;;;13.43;9.27;;;;;;;9.66;100.00;100739.09;2602078;36;20802;-73
2021/10/29 03:45:01;;;;;;;14.10;9.38;;;;;;;9.74;100.00;100736.56;2602040;36;20038;-73
2021/10/29 03:47:31;;;;;;;14.10;9.05;;;;;;;9.67;100.00;100739.94;2605178;36;20653;-72
2021/10/29 03:50:14;;;;;;;13.88;9.30;;;;;;;9.62;100.00;100734.97;2602258;36;20043;-73
2021/10/29 03:52:49;;;;;;;17.80;9.45;;;;;;;9.69;100.00;100729.88;2623005;36;20039;-72
2021/10/29 03:55:18;;;;;;;15.90;9.38;;;;;;;9.66;100.00;100733.72;2605656;36;20122;-73
2021/10/29 03:57:49;;;;;;;13.07;8.70;;;;;;;9.58;100.00;100734.34;2602520;36;20419;-72
2021/10/29 04:00:25;;;;;;;12.98;9.18;;;;;;;9.62;100.00;100726.91;2601990;31;20069;-74
2021/10/29 04:02:53;;;;;;;13.63;8.38;;;;;;;9.61;100.00;100730.56;2601867;36;20068;-72
2021/10/29 04:05:24;;;;;;;13.48;9.27;;;;;;;9.59;100.00;100729.84;2604254;36;20063;-72
2021/10/29 04:07:52;;;;;;;14.85;9.68;;;;;;;9.57;100.00;100724.63;2605459;36;20039;-73
2021/10/29 04:10:24;;;;;;;15.73;9.18;;;;;;;9.49;100.00;100732.47;2604317;36;20089;-73
2021/10/29 04:12:53;;;;;;;16.30;9.27;;;;;;;9.53;100.00;100722.34;2605246;31;20051;-72
2021/10/29 04:15:26;;;;;;;14.10;9.80;;;;;;;9.54;100.00;100724.00;2602964;36;20428;-72
2021/10/29 04:17:55;;;;;;;14.55;8.68;;;;;;;9.44;100.00;100730.19;2604798;36;20035;-73
2021/10/29 04:20:26;;;;;;;11.43;8.77;;;;;;;9.40;100.00;100718.00;2604647;36;20035;-73
2021/10/29 04:22:54;;;;;;;15.30;9.35;;;;;;;9.42;100.00;100718.72;2606285;36;20424;-74
2021/10/29 04:25:23;;;;;;;14.20;9.23;;;;;;;9.49;100.00;100715.50;2604126;36;20038;-73
2021/10/29 04:27:57;;;;;;;13.30;9.10;;;;;;;9.51;100.00;100709.03;2602029;36;20074;-73
2021/10/29 04:30:30;;;;;;;11.30;8.20;;;;;;;9.50;100.00;100698.41;2605031;36;20125;-73
2021/10/29 04:32:59;;;;;;;14.38;9.27;;;;;;;9.46;100.00;100701.34;2620253;36;21418;-73
2021/10/29 04:35:29;;;;;;;12.77;8.77;;;;;;;9.51;100.00;100702.78;2603014;36;20142;-72
2021/10/29 04:37:58;;;;;;;13.65;8.50;;;;;;;9.55;100.00;100686.25;2605465;36;20084;-74
2021/10/29 04:40:26;;;;;;;14.98;8.82;;;;;;;9.53;100.00;100684.72;2604587;31;20030;-75
2021/10/29 04:42:54;;;;;;;13.73;9.35;;;;;;;9.57;100.00;100692.38;2603769;36;20073;-73
2021/10/29 04:45:22;;;;;;;13.65;9.23;;;;;;;9.58;100.00;100690.53;2604030;36;20042;-73
2021/10/29 04:47:55;;;;;;;12.60;8.75;;;;;;;9.56;100.00;100687.97;2603515;31;20189;-72
2021/10/29 04:50:24;;;;;;;12.85;8.68;;;;;;;9.58;100.00;100696.75;2601061;36;20057;-73
2021/10/29 04:52:52;;;;;;;15.20;9.05;;;;;;;9.49;100.00;100684.13;2599242;36;20146;-74
2021/10/29 04:55:20;;;;;;;13.55;8.82;;;;;;;9.53;100.00;100698.16;2606075;36;20050;-74
2021/10/29 04:57:49;;;;;;;14.55;9.30;;;;;;;9.50;100.00;100688.50;2606487;36;20133;-73
2021/10/29 05:00:18;;;;;;;14.35;8.82;;;;;;;9.41;100.00;100692.84;2599514;36;20081;-73
2021/10/29 05:02:47;;;;;;;16.88;9.30;;;;;;;9.50;100.00;100687.66;2603196;36;20568;-74
2021/10/29 05:05:18;;;;;;;14.88;9.48;;;;;;;9.57;100.00;100686.13;2600685;36;20074;-73
2021/10/29 05:07:46;;;;;;;14.25;9.10;;;;;;;9.62;100.00;100676.69;2602755;36;20034;-73
2021/10/29 05:10:16;;;;;;;14.68;9.68;;;;;;;9.64;100.00;100681.91;2605470;36;20205;-73
2021/10/29 05:12:46;;;;;;;15.40;9.40;;;;;;;9.62;100.00;100674.00;2602974;36;20038;-73
2021/10/29 05:15:16;;;;;;;15.20;9.10;;;;;;;9.62;100.00;100678.53;2604919;36;21860;-73
2021/10/29 05:17:45;;;;;;;13.02;8.13;;;;;;;9.61;100.00;100677.69;2604429;36;20034;-73
2021/10/29 05:20:14;;;;;;;12.73;8.55;;;;;;;9.62;100.00;100673.16;2598579;36;20065;-73
2021/10/29 05:22:45;;;;;;;15.48;9.23;;;;;;;9.65;100.00;100673.72;2601840;36;20068;-73
2021/10/29 05:25:14;;;;;;;12.90;8.52;;;;;;;9.73;100.00;100670.38;2606004;36;20435;-71
2021/10/29 05:27:42;;;;;;;15.57;9.70;;;;;;;9.82;100.00;100680.31;2601632;36;20038;-73
2021/10/29 05:30:12;;;;;;;14.52;9.27;;;;;;;9.79;100.00;100669.84;2597891;36;20149;-73
2021/10/29 05:32:41;;;;;;;13.07;9.05;;;;;;;9.82;100.00;100669.56;2604882;31;20233;-72
2021/10/29 05:35:10;;;;;;;15.13;9.23;;;;;;;9.71;100.00;100671.50;2598407;36;20099;-72
2021/10/29 05:37:39;;;;;;;14.27;9.32;;;;;;;9.77;100.00;100669.09;2601699;36;20038;-74
2021/10/29 05:40:19;;;;;;;17.83;9.00;;;;;;;9.79;100.00;100666.28;2601915;36;20181;-73
2021/10/29 05:43:05;;;;;;;16.08;9.05;;;;;;;9.84;100.00;100671.28;2601979;36;20034;-74
2021/10/29 05:45:33;;;;;;;15.85;9.55;;;;;;;9.86;100.00;100667.44;2620887;36;20165;-73
2021/10/29 05:48:05;;;;;;;14.82;8.57;;;;;;;9.97;100.00;100661.13;2603259;36;20038;-73
2021/10/29 05:50:59;;;;;;;16.70;8.38;;;;;;;9.98;100.00;100658.28;2602600;36;20503;-73
2021/10/29 05:53:51;;;;;;;10.35;7.72;;;;;;;9.87;100.00;100660.25;2602834;36;20038;-73
2021/10/29 05:56:26;;;;;;;14.48;9.10;;;;;;;9.84;100.00;100666.72;2602124;36;20165;-73
2021/10/29 05:59:03;;;;;;;14.95;8.38;;;;;;;9.86;100.00;100655.84;2603978;36;20039;-74
2021/10/29 06:01:32;;;;;;;11.63;7.97;;;;;;;9.79;100.00;100659.09;2604228;36;20057;-73
2021/10/29 09:32:22;;;;;;;8.30;5.78;;;;;;;12.88;100.00;100554.25;2611823;31;20566;-71
2021/10/29 09:35:05;;;;;;;9.02;6.20;;;;;;;13.00;100.00;100540.47;2612309;36;20042;-71
2021/10/29 09:37:59;;;;;;;11.48;6.57;;;;;;;13.14;100.00;100547.97;2612091;36;20057;-72
2021/10/29 09:40:28;;;;;;;11.52;5.80;;;;;;;13.27;100.00;100540.25;2611457;36;20038;-72
2021/10/29 09:43:03;;;;;;;9.32;5.97;;;;;;;13.42;100.00;100534.28;2612238;36;20050;-73
2021/10/29 09:45:33;;;;;;;14.77;7.05;;;;;;;13.39;100.00;100524.63;2612020;36;20566;-73
2021/10/29 09:48:17;;;;;;;7.65;5.53;;;;;;;13.61;100.00;100531.31;2611423;36;20046;-72
2021/10/29 09:50:51;;;;;;;9.25;5.63;;;;;;;13.46;100.00;100530.25;2629733;36;20031;-72
2021/10/29 09:53:41;;;;;;;9.77;5.78;;;;;;;13.51;100.00;100529.75;2610405;36;20080;-71
2021/10/29 09:56:15;;;;;;;12.70;6.60;;;;;;;13.60;100.00;100529.63;2630654;36;20034;-72
2021/10/29 09:58:45;;;;;;;8.68;6.03;;;;;;;13.71;100.00;100533.06;2610348;36;20057;-74
2021/10/29 10:01:14;;;;;;;8.00;6.25;;;;;;;13.88;100.00;100528.50;2612607;36;20448;-72
2021/10/29 10:03:43;;;;;;;;;;;;;;;13.87;100.00;100521.41;2611454;36;20153;-73
2021/10/29 10:06:12;;;;;;;7.38;5.78;;;;;;;13.97;100.00;100516.69;2611440;36;19946;-72
2021/10/29 10:08:52;;;;;;;11.23;5.53;;;;;;;14.04;100.00;100516.88;2611332;36;20059;-72
2021/10/29 10:11:21;;;;;;;8.63;5.85;;;;;;;14.02;100.00;100498.94;2612523;36;20069;-74
2021/10/29 10:13:51;;;;;;;9.80;5.90;;;;;;;13.95;100.00;100507.91;2611409;36;20562;-72
2021/10/29 10:16:20;;;;;;;8.73;5.75;;;;;;;14.10;100.00;100505.38;2611192;36;20038;-75
2021/10/29 10:18:55;;;;;;;12.13;6.35;;;;;;;14.22;100.00;100503.19;2610846;36;20133;-73
2021/10/29 10:21:25;;;;;;;7.60;5.18;;;;;;;14.31;100.00;100497.59;2611602;36;20039;-73
2021/10/29 10:24:03;;;;;;;8.45;5.63;;;;;;;14.40;100.00;100508.41;2611769;36;20030;-73
2021/10/29 10:26:47;;;;;;;9.65;5.47;;;;;;;14.53;100.00;100506.03;2612023;36;20030;-73
2021/10/29 10:29:23;;;;;;;9.27;5.68;;;;;;;14.66;100.00;100506.41;2612215;36;20054;-72
2021/10/29 10:46:58;;;;;;;9.70;5.55;;;;;;;14.81;100.00;100497.56;2628936;36;20065;-72
2021/10/29 10:50:16;;;;;;;;;;;;;;;;;;;;;
2021/10/29 10:53:17;;;;;;;11.38;6.18;;;;;;;14.87;100.00;100497.72;2630841;36;22191;-72
2021/10/29 10:56:03;;;;;;;9.32;5.13;;;;;;;14.89;100.00;100484.00;2611697;36;20022;-72
2021/10/29 11:01:58;;;;;;;15.50;6.72;;;;;;;15.06;100.00;100472.09;2611697;36;20451;-73
2021/10/29 11:04:48;;;;;;;11.95;6.25;;;;;;;14.95;100.00;100464.34;2629005;36;20057;-72
2021/10/29 11:09:52;;;;;;;11.02;5.05;;;;;;;15.06;100.00;100463.09;2611585;36;20034;-74
2021/10/29 11:10:27;;;;;;;6.90;5.22;;;;;;;15.11;100.00;100460.72;2611907;31;20038;-72
2021/10/29 11:13:13;;;;;;;11.63;6.07;;;;;;;15.19;100.00;100455.28;2612244;36;20061;-72
2021/10/29 11:15:42;;;;;;;10.90;5.63;;;;;;;15.00;100.00;100461.97;2611981;36;20403;-73
2021/10/29 11:18:39;;;;;;;9.82;5.63;;;;;;;15.03;100.00;100437.22;2610226;36;20125;-72
2021/10/29 11:21:25;;;;;;;8.48;5.05;;;;;;;15.10;100.00;100431.09;2611785;36;20037;-73
2021/10/29 11:23:56;;;;;;;8.43;5.00;;;;;;;15.10;100.00;100417.53;2612267;36;20030;-71
2021/10/29 11:26:28;;;;;;;9.40;5.40;;;;;;;15.16;100.00;100419.53;2613161;36;20085;-72
2021/10/29 11:29:03;;;;;;;8.93;5.22;;;;;;;15.06;100.00;100398.06;2612301;36;20729;-72
2021/10/29 11:31:34;;;;;;;9.93;4.88;;;;;;;15.14;100.00;100405.31;2610558;36;20038;-72
2021/10/29 11:34:05;;;;;;;7.00;4.70;;;;;;;15.16;100.00;100387.00;2612253;36;20057;-71
2021/10/29 11:36:35;;;;;;;7.25;4.90;;;;;;;15.34;100.00;100400.28;2611911;36;20058;-72
2021/10/29 11:39:08;;;;;;;10.23;5.28;;;;;;;15.20;100.00;100381.03;2609845;36;20042;-72
2021/10/29 11:41:38;;;;;;;7.85;5.00;;;;;;;15.29;100.00;100383.72;2611741;36;20038;-73
2021/10/29 11:44:12;;;;;;;9.77;5.22;;;;;;;15.35;100.00;100381.13;2611356;36;20192;-73
2021/10/29 11:46:46;;;;;;;7.65;5.40;;;;;;;15.30;100.00;100367.28;2611599;36;20038;-72
2021/10/29 11:52:03;;;;;;;11.05;5.07;;;;;;;15.50;100.00;100356.81;2613107;54;20559;-72
2021/10/29 11:54:36;;;;;;;10.27;4.97;;;;;;;15.46;100.00;100346.47;2615988;31;20030;-72
2021/10/29 12:00:16;;;;;;;7.95;5.13;;;;;;;15.48;100.00;100341.72;2612219;36;20041;-73
2021/10/29 12:08:11;;;;;;;8.48;5.68;;;;;;;15.60;100.00;100318.56;2612151;36;20035;-72
2021/10/29 12:10:44;;;;;;;8.80;5.22;;;;;;;15.62;100.00;100316.53;2612101;36;20122;-73
2021/10/29 12:13:12;;;;;;;11.50;5.10;;;;;;;15.83;100.00;100306.88;2612575;36;20037;-73
2021/10/29 12:15:45;;;;;;;8.27;4.00;;;;;;;15.95;100.00;100313.53;2612438;36;20505;-73
2021/10/29 12:18:16;;;;;;;8.32;5.18;;;;;;;15.98;100.00;100310.47;2613301;31;20120;-74
2021/10/29 12:20:47;;;;;;;12.45;5.57;;;;;;;15.88;100.00;100304.44;2612303;36;20130;-73
2021/10/29 12:23:21;;;;;;;9.27;4.97;;;;;;;15.91;100.00;100306.78;2612322;31;20061;-73
2021/10/29 12:25:59;;;;;;;7.60;4.85;;;;;;;15.84;100.00;100308.56;2612819;36;20073;-72
2021/10/29 12:28:31;;;;;;;9.05;5.68;;;;;;;15.88;100.00;100312.59;2612202;36;20603;-72
2021/10/29 13:05:57;;;;;;;6.93;5.45;;;;;;;15.73;100.00;100264.53;2626664;36;20582;-72
2021/10/29 13:08:27;;;;;;;8.75;5.35;;;;;;;15.69;100.00;100255.06;2609434;36;20588;-72
2021/10/29 13:10:57;;;;;;;9.32;5.32;;;;;;;15.67;100.00;100248.16;2610862;36;20042;-72
2021/10/29 13:13:28;;;;;;;12.25;5.75;;;;;;;15.67;100.00;100248.16;2610630;36;20169;-72
2021/10/29 13:16:01;;;;;;;6.93;4.85;;;;;;;15.76;100.00;100231.59;2611895;36;20046;-74
2021/10/29 13:18:37;;;;;;;7.90;5.45;;;;;;;15.63;100.00;100236.00;2611352;36;20034;-72
2021/10/29 13:21:42;;;;;;;8.05;5.15;;;;;;;15.70;100.00;100226.91;2609800;36;20030;-72
2021/10/29 13:27:10;;;;;;;6.80;5.07;;;;;;;15.48;100.00;100239.50;2610711;36;20694;-73
2021/10/29 13:35:23;;;;;;;7.80;4.85;;;;;;;15.57;100.00;100234.84;2611458;36;20030;-73
2021/10/29 13:54:22;;;;;;;8.55;5.38;;;;;;;15.58;100.00;100236.53;2607534;36;20578;-74
2021/10/29 14:30:36;;;;;;;10.82;6.60;;;;;;;15.19;100.00;100235.69;2614278;36;20149;-73
2021/10/29 14:33:10;;;;;;;11.30;6.50;;;;;;;15.20;100.00;100241.97;2612789;31;20031;-73
2021/10/29 14:35:42;;;;;;;8.65;6.78;;;;;;;15.05;100.00;100244.63;2609977;36;20085;-73
2021/10/29 14:38:16;;;;;;;10.00;6.15;;;;;;;15.05;100.00;100250.88;2610667;36;20534;-73
2021/10/29 14:40:48;;;;;;;10.38;6.32;;;;;;;14.97;100.00;100253.66;2611125;36;20034;-75
2021/10/29 14:43:19;;;;;;;11.18;6.60;;;;;;;14.82;100.00;100250.00;2608028;36;20030;-73
2021/10/29 14:45:57;;;;;;;10.57;6.45;;;;;;;14.82;100.00;100263.56;2611737;36;20409;-73
2021/10/29 14:48:38;;;;;;;11.55;6.60;;;;;;;14.80;100.00;100263.75;2609125;31;20568;-73
2021/10/29 14:51:34;;;;;;;12.73;6.85;;;;;;;14.62;100.00;100261.31;2610627;36;20037;-73
2021/10/29 15:05:14;;;;;;;9.77;6.28;;;;;;;14.40;100.00;100268.31;2607505;36;20058;-74
2021/10/29 15:24:31;;;;;;;11.63;6.55;;;;;;;14.31;100.00;100275.63;2609690;36;20037;-73
2021/10/29 15:27:00;;;;;;;11.07;5.72;;;;;;;14.37;100.00;100272.22;2611662;36;20042;-74
2021/10/29 15:29:35;;;;;;;10.50;6.32;;;;;;;14.43;100.00;100278.78;2611246;36;20062;-73
2021/10/29 15:32:27;;;;;;;14.65;7.22;;;;;;;14.40;100.00;100272.88;2611652;36;20034;-74
2021/10/29 15:43:18;;;;;;;12.45;6.28;;;;;;;14.32;100.00;100269.16;2612109;36;20031;-74
2021/10/29 15:45:47;;;;;;;12.75;6.93;;;;;;;14.37;100.00;100280.34;2610489;36;20034;-73
2021/10/29 15:48:18;;;;;;;12.73;6.00;;;;;;;14.30;100.00;100271.22;2611276;36;20072;-75
2021/10/29 15:50:47;;;;;;;13.70;6.15;;;;;;;14.38;100.00;100270.34;2611170;36;20150;-74
2021/10/29 15:53:18;;;;;;;11.67;6.83;;;;;;;14.29;100.00;100277.66;2610487;36;20153;-71
2021/10/29 15:55:55;;;;;;;9.90;6.00;;;;;;;14.38;100.00;100262.22;2611713;36;20763;-73
2021/10/29 15:58:35;;;;;;;10.30;6.38;;;;;;;14.29;100.00;100265.97;2611437;31;20139;-73
2021/10/29 16:01:11;;;;;;;11.00;6.03;;;;;;;14.24;100.00;100271.94;2611139;36;20034;-73
2021/10/29 16:03:50;;;;;;;11.48;6.10;;;;;;;14.25;100.00;100276.34;2609845;36;20555;-76
2021/10/29 16:17:10;;;;;;;14.88;6.93;;;;;;;14.23;100.00;100278.34;2609909;31;20133;-74
2021/10/29 16:19:54;;;;;;;17.65;7.20;;;;;;;14.34;100.00;100275.28;2627672;36;20183;-75
2021/10/29 16:22:43;;;;;;;14.93;7.03;;;;;;;14.49;100.00;100282.66;2630311;31;20477;-74
2021/10/29 16:25:29;;;;;;;9.95;5.43;;;;;;;14.65;100.00;100274.50;2628529;36;20030;-73
2021/10/29 16:28:00;;;;;;;7.03;4.20;;;;;;;14.85;100.00;100282.16;2628918;36;20161;-73
2021/10/29 16:30:30;;;;;;;7.43;4.18;;;;;;;15.05;100.00;100282.56;2647167;36;20045;-74
2021/10/29 16:39:31;;;;;;;9.07;3.92;;;;;;;15.25;100.00;100280.19;2677641;36;20041;-73
2021/10/29 16:45:23;;;;;;;8.20;3.90;;;;;;;15.47;100.00;100280.38;2631183;36;20031;-73
2021/10/29 18:12:32;;;;;;;7.95;5.50;;;;;;;14.35;100.00;100425.88;2628739;36;20024;-73
2021/10/29 18:15:05;;;;;;;4.88;3.65;;;;;;;14.40;100.00;100421.78;2608194;36;20043;-73
2021/10/29 18:20:54;;;;;;;4.57;3.17;;;;;;;14.15;100.00;100432.66;2626644;36;20035;-73
2021/10/29 18:24:24;;;;;;;5.68;3.50;;;;;;;14.11;100.00;100431.28;2606308;36;20034;-73
2021/10/29 18:26:55;;;;;;;5.72;4.20;;;;;;;14.07;100.00;100425.38;2609762;36;20030;-74
2021/10/29 18:29:23;;;;;;;5.63;3.40;;;;;;;13.97;100.00;100430.09;2609157;36;20142;-75
2021/10/29 18:32:09;;;;;;;7.27;3.63;;;;;;;13.98;100.00;100439.91;2611001;36;20575;-73
2021/10/29 18:34:37;;;;;;;8.05;4.97;;;;;;;13.94;100.00;100446.69;2611079;36;20030;-75
2021/10/29 18:37:12;;;;;;;6.40;4.05;;;;;;;13.86;100.00;100450.22;2610918;36;20069;-74
2021/10/29 18:39:40;;;;;;;6.57;3.75;;;;;;;13.91;100.00;100441.59;2610726;36;20035;-76
2021/10/29 18:42:14;;;;;;;5.43;4.00;;;;;;;13.92;100.00;100440.59;2610300;36;20038;-73
2021/10/29 18:44:43;;;;;;;7.35;4.00;;;;;;;13.97;100.00;100441.78;2611423;31;20565;-73
2021/10/29 18:47:12;;;;;;;4.93;3.72;;;;;;;13.93;100.00;100442.31;2610917;36;20030;-73
2021/10/29 18:49:43;;;;;;;;;;;;;;;13.92;100.00;100452.25;2609147;31;20046;-74
2021/10/29 18:52:36;;;;;;;8.52;3.42;;;;;;;13.78;100.00;100458.31;2609993;36;20045;-74
2021/10/29 18:55:16;;;;;;;6.72;3.20;;;;;;;13.65;100.00;100456.13;2609211;36;20159;-74
2021/10/29 18:57:48;;;;;;;4.88;3.83;;;;;;;13.71;100.00;100451.91;2611201;36;20037;-73
2021/10/29 19:00:16;;;;;;;6.43;4.00;;;;;;;13.72;100.00;100459.00;2612454;36;20034;-73
2021/10/29 19:08:46;;;;;;;6.32;4.05;;;;;;;13.69;100.00;100459.31;2645081;36;20547;-76
2021/10/29 19:14:22;;;;;;;4.25;3.40;;;;;;;13.62;100.00;100459.16;2611078;54;20052;-73
2021/10/29 19:17:01;;;;;;;6.63;3.67;;;;;;;13.67;100.00;100454.91;2631798;36;20578;-72
2021/10/29 19:19:45;;;;;;;;;;;;;;;13.59;100.00;100454.94;2629175;36;20034;-73
2021/10/29 19:22:21;;;;;;;7.63;3.50;;;;;;;13.55;100.00;100450.03;2646059;36;21162;-72
2021/10/29 19:25:13;;;;;;;7.20;3.97;;;;;;;13.49;100.00;100465.03;2628116;36;20074;-72
2021/10/29 19:28:03;;;;;;;5.93;4.13;;;;;;;13.51;100.00;100463.00;2610719;36;20445;-73
2021/10/29 19:30:43;;;;;;;8.02;4.50;;;;;;;13.47;100.00;100469.75;2628956;36;20030;-72
2021/10/29 19:33:43;;;;;;;4.93;3.65;;;;;;;13.42;100.00;100474.81;2609353;54;20030;-72
2021/10/29 19:39:22;;;;;;;8.30;4.43;;;;;;;13.47;100.00;100488.66;2629014;36;20117;-73
2021/10/29 19:42:27;;;;;;;13.90;4.47;;;;;;;13.38;100.00;100468.03;2611654;31;20038;-72
2021/10/29 19:45:13;;;;;;;;;;;;;;;;;;;;;
2021/10/29 19:50:49;;;;;;;10.70;4.80;;;;;;;13.27;100.00;100480.81;2625937;31;20554;-72
2021/10/29 19:53:31;;;;;;;6.90;4.78;;;;;;;13.33;100.00;100482.84;2609936;36;20382;-74
2021/10/29 19:59:12;;;;;;;6.93;5.28;;;;;;;13.31;100.00;100484.88;2627937;36;20034;-71
2021/10/29 20:02:16;;;;;;;6.55;4.70;;;;;;;13.24;100.00;100483.84;2609179;36;20038;-72
2021/10/29 20:11:47;;;;;;;8.68;6.22;;;;;;;13.13;100.00;100492.22;2626577;36;20041;-73
2021/10/29 20:15:02;;;;;;;8.52;5.88;;;;;;;13.11;100.00;100505.06;2625754;36;20564;-74
2021/10/29 20:21:18;;;;;;;9.48;6.72;;;;;;;13.19;100.00;100494.31;2645065;36;20069;-73
2021/10/29 20:30:54;;;;;;;7.90;5.93;;;;;;;13.19;100.00;100494.31;2634911;36;20042;-72
2021/10/29 20:42:58;;;;;;;;;;;;;;;;;;;;;